Bolivar, Tennessee
Current Conditions -  °F | °C
As of 7:08 AM on Sunday 23 Nov 2014 (Local Time) from KMKL Reporting Station
Haze Haze  
Wind Chill: 55°   Ceiling: 600
Heat Index: 55°   Visibility: 2.5mi
Dew Point: 54°   Wind: 5mph
Humidity: 94%   Direction: NA
Pressure: 29.79"   Gusts: NA
Location:  35.26°N, 88.99°W
Report Text: KMKL 231308Z VRB04KT 2 1/2SM BR OVC006 13/12 A2979 RMK AO2
Loading
Personal Weather Stations






























Interactive Weather Map New forecast layout! Learn more

10-Day Weather Forecast

Advertisements
Track Severe Weather on mobile